Pittsboro, NC

6:32 AM EDT on July 29, 2015 (GMT -0400)
Henrys Ridge | | Change Station
CLOSE
Current Station
Personal Weather Station
Location: Pittsboro, NC
Elevation: 372 ft
Nearby Weather Stations

Elev 372 ft 35.74 °N, 79.10 °W | Updated 11 seconds ago

Partly Cloudy
Partly Cloudy
71.7 °F
Feels Like 71.7 °F
N
0.0
Wind Variable Wind from ESE
Gusts 0.0 mph

Today
High -- | Low -- °F
--% Chance of Precip.
Yesterday
High -- | Low -- °F
Precip. -- in
6:22 AM 8:23 PM
Waxing Gibbous, 95% visible
Pressure 29.99 in
Visibility 2.0 miles
Clouds Overcast 5500 ft
Dew Point 71 °F
Humidity 98%
Rainfall 0.00 in
Snow Depth Not available.
UV 0 out of 12
Pollen 2.50 out of 12
Air Quality Not available.
Flu Activity Not available.
METAR KTTA 291015Z AUTO 00000KT 2SM BR OVC055 22/22 A2999 RMK AO2 T02150215

More Conditions Fewer Conditions

Pressure 29.99 in
Visibility 2.0 miles
Clouds Overcast 5500 ft
Dew Point 71 °F
Humidity 98%
Rainfall 0.00 in
Snow Depth Not available.
UV 0 out of 12
Pollen 2.50 out of 12
Air Quality Not available.
Flu Activity Not available.
METAR KTTA 291015Z AUTO 00000KT 2SM BR OVC055 22/22 A2999 RMK AO2 T02150215

More Conditions Fewer Conditions

10-Day Weather Forecast

×

Almanac

Astronomy

Jul. 29, 2015 Rise Set
Actual Time
Civil Twilight
Nautical Twilight
Astronomical Twilight
Moon
Length of Visible Light
Length of Day
Tomorrow will be .
, % of the Moon is Illuminated

Today's Extremes

State Highs State Lows

Community

WunderPhotos

Upload Photos

1,842,069 photos uploaded!

WunderBlogs® & News

Nearby

Air Quality

  Air Quality AQ Index Pollutant
Not available.

Snow Depth

Station Depth Elevation

Earthquake Activity

City Distance Mag. Time & Date
Minimum magnitude displayed is 2.5.

Coastal Water Temperatures

Place Temperature

Stations

Nearby Weather Stations

Station Location Temp. Windchill Dew Point Humidity Wind Precip. Elev Updated Type